Dongtai, China
Current Conditions -  °F | °C
As of 10:00 AM on Monday 22 Dec 2014 (Local Time) from ZSNJ Reporting Station
Haze Haze  
Wind Chill: 41°   Ceiling: Unl
Heat Index: 41°   Visibility: 3mi
Dew Point: 21°   Wind: 2mph
Humidity: 45%   Direction: NA
Pressure: 30.48"   Gusts: NA
Location:  32.85°N, 120.3°E
Report Text: ZSNJ 220200Z VRB01MPS 5000 HZ NSC 05/M06 Q1032 NOSIG
Loading
Personal Weather Stations






























Interactive Weather Map New forecast layout! Learn more

10-Day Weather Forecast

Advertisements
Track Severe Weather on mobile